createdAt,value
2023-12-29T00:00:19.399Z,119.67
2023-12-29T00:00:51.480Z,121.67
2023-12-29T00:01:24.089Z,123.00
2023-12-29T00:01:56.452Z,124.00
2023-12-29T00:02:28.562Z,124.00
2023-12-29T00:03:01.004Z,123.67
2023-12-29T00:03:33.123Z,123.00
2023-12-29T00:04:05.325Z,123.00
2023-12-29T00:04:37.362Z,122.33
2023-12-29T00:05:10.103Z,122.00
2023-12-29T00:05:42.299Z,122.00
2023-12-29T00:06:14.391Z,122.00
2023-12-29T00:06:53.658Z,122.00
2023-12-29T00:07:35.929Z,122.33
2023-12-29T00:08:07.980Z,123.00
2023-12-29T00:08:40.161Z,122.33
2023-12-29T00:09:12.320Z,122.00
2023-12-29T00:09:47.056Z,122.00
2023-12-29T00:10:19.204Z,122.00
2023-12-29T00:10:51.443Z,122.00
2023-12-29T00:11:23.915Z,122.00
2023-12-29T00:11:56.639Z,122.00
2023-12-29T00:12:28.720Z,121.00
2023-12-29T00:13:01.315Z,121.00
2023-12-29T00:13:33.502Z,120.67
2023-12-29T00:14:07.016Z,120.00
2023-12-29T00:14:40.684Z,119.33
2023-12-29T00:15:12.763Z,119.00
2023-12-29T00:15:44.878Z,118.00
2023-12-29T00:16:17.257Z,118.00
2023-12-29T00:16:49.422Z,117.00
2023-12-29T00:17:21.719Z,117.00
2023-12-29T00:17:54.330Z,116.00
2023-12-29T00:18:26.657Z,116.00
2023-12-29T00:18:58.891Z,116.00
2023-12-29T00:19:31.235Z,115.33
2023-12-29T00:20:04.101Z,115.00
2023-12-29T00:20:41.468Z,115.00
2023-12-29T00:21:15.611Z,114.00
2023-12-29T00:21:48.812Z,114.00
2023-12-29T00:22:20.821Z,113.67
2023-12-29T00:22:52.868Z,113.00
2023-12-29T00:23:24.971Z,113.00
2023-12-29T00:23:58.269Z,113.00
2023-12-29T00:24:30.761Z,112.67
2023-12-29T00:25:03.019Z,112.00
2023-12-29T00:25:37.168Z,111.33
2023-12-29T00:26:09.304Z,109.67
2023-12-29T00:26:41.406Z,108.33
2023-12-29T00:27:13.592Z,106.67
2023-12-29T00:27:45.848Z,104.67
2023-12-29T00:28:17.899Z,103.33
2023-12-29T00:28:49.894Z,101.33
2023-12-29T00:29:24.511Z,100.00
2023-12-29T00:29:57.365Z,100.00
2023-12-29T00:30:43.666Z,100.33
2023-12-29T00:31:21.972Z,100.00
2023-12-29T00:31:54.406Z,100.00
2023-12-29T00:32:26.897Z,100.00
2023-12-29T00:33:00.895Z,100.00
2023-12-29T00:33:33.259Z,100.00
2023-12-29T00:34:05.583Z,100.00
2023-12-29T00:34:37.708Z,100.00
2023-12-29T00:35:11.007Z,100.00
2023-12-29T00:35:43.369Z,100.00
2023-12-29T00:36:16.367Z,100.00
2023-12-29T00:36:49.645Z,100.00
2023-12-29T00:37:21.716Z,99.67
2023-12-29T00:37:53.960Z,99.00
2023-12-29T00:38:27.161Z,99.00
2023-12-29T00:38:59.214Z,99.00
2023-12-29T00:39:32.581Z,99.00
2023-12-29T00:40:07.185Z,99.00
2023-12-29T00:40:39.302Z,99.00
2023-12-29T00:41:13.382Z,99.00
2023-12-29T00:41:45.444Z,99.00
2023-12-29T00:42:17.629Z,99.00
2023-12-29T00:42:49.637Z,99.00
2023-12-29T00:43:21.754Z,99.00
2023-12-29T00:43:53.773Z,98.33
2023-12-29T00:44:27.214Z,98.00
2023-12-29T00:44:59.394Z,98.00
2023-12-29T00:45:31.446Z,98.00
2023-12-29T00:46:04.044Z,98.00
2023-12-29T00:46:36.049Z,97.00
2023-12-29T00:47:08.051Z,97.00
2023-12-29T00:47:40.242Z,97.00
2023-12-29T00:48:12.497Z,97.00
2023-12-29T00:48:45.805Z,96.67
2023-12-29T00:49:18.109Z,96.00
2023-12-29T00:49:50.266Z,96.00
2023-12-29T00:50:22.278Z,96.00
2023-12-29T00:50:54.920Z,97.00
2023-12-29T00:51:27.089Z,97.00
2023-12-29T00:51:59.129Z,97.00
2023-12-29T00:52:31.175Z,97.33
2023-12-29T00:53:03.197Z,98.00
2023-12-29T00:53:36.356Z,98.00
2023-12-29T00:54:08.398Z,98.00
2023-12-29T00:54:49.457Z,98.00
2023-12-29T00:55:21.585Z,98.00
2023-12-29T00:55:53.943Z,98.00
2023-12-29T00:56:26.007Z,99.00
2023-12-29T00:56:58.177Z,99.00
2023-12-29T00:57:30.256Z,99.33
2023-12-29T00:58:02.760Z,100.00
2023-12-29T00:58:34.930Z,100.00
2023-12-29T00:59:07.049Z,100.00
2023-12-29T00:59:40.359Z,100.00
2023-12-29T01:00:14.131Z,100.00
2023-12-29T01:00:46.255Z,100.00
2023-12-29T01:01:21.617Z,100.00
2023-12-29T01:01:53.933Z,100.00
2023-12-29T01:02:26.073Z,100.00
2023-12-29T01:02:58.751Z,100.00
2023-12-29T01:03:30.975Z,100.33
2023-12-29T01:04:03.504Z,104.67
2023-12-29T01:04:38.257Z,123.67
2023-12-29T01:05:11.731Z,156.67
2023-12-29T01:05:44.010Z,173.33
2023-12-29T01:06:16.127Z,177.67
2023-12-29T01:06:48.474Z,178.33
2023-12-29T01:07:20.608Z,177.00
2023-12-29T01:07:52.783Z,172.67
2023-12-29T01:08:24.788Z,168.33
2023-12-29T01:09:00.761Z,162.00
2023-12-29T01:09:32.823Z,156.00
2023-12-29T01:10:06.021Z,152.67
2023-12-29T01:10:38.086Z,149.00
2023-12-29T01:11:16.716Z,147.00
2023-12-29T01:11:48.901Z,145.33
2023-12-29T01:12:20.989Z,144.33
2023-12-29T01:12:53.046Z,141.67
2023-12-29T01:13:25.079Z,132.67
2023-12-29T01:13:57.605Z,119.33
2023-12-29T01:14:29.705Z,111.67
2023-12-29T01:15:03.503Z,108.67
2023-12-29T01:15:35.667Z,105.33
2023-12-29T01:16:07.811Z,103.33
2023-12-29T01:16:40.144Z,100.33
2023-12-29T01:17:12.521Z,99.33
2023-12-29T01:17:44.736Z,97.67
2023-12-29T01:18:17.712Z,95.00
2023-12-29T01:18:49.898Z,93.67
2023-12-29T01:19:22.480Z,91.33
2023-12-29T01:19:54.702Z,92.33
2023-12-29T01:20:26.869Z,93.67
2023-12-29T01:21:00.266Z,93.00
2023-12-29T01:21:32.302Z,91.33
2023-12-29T01:22:04.819Z,90.67
2023-12-29T01:22:37.081Z,90.00
2023-12-29T01:23:09.244Z,89.33
2023-12-29T01:23:41.506Z,89.00
2023-12-29T01:24:15.666Z,89.00
2023-12-29T01:24:48.321Z,89.00
2023-12-29T01:25:20.354Z,90.33
2023-12-29T01:25:52.794Z,91.00
2023-12-29T01:26:24.975Z,92.00
2023-12-29T01:26:58.310Z,92.67
2023-12-29T01:27:30.930Z,93.00
2023-12-29T01:28:03.179Z,93.00
2023-12-29T01:28:36.103Z,93.00
2023-12-29T01:29:08.434Z,93.00
2023-12-29T01:29:41.163Z,93.00
2023-12-29T01:30:15.073Z,93.00
2023-12-29T01:30:47.315Z,92.00
2023-12-29T01:31:20.515Z,92.00
2023-12-29T01:31:52.617Z,92.00
2023-12-29T01:32:24.797Z,91.33
2023-12-29T01:32:56.923Z,91.00
2023-12-29T01:33:29.080Z,91.00
2023-12-29T01:34:01.704Z,90.33
2023-12-29T01:34:34.216Z,90.00
2023-12-29T01:35:07.364Z,90.00
2023-12-29T01:35:40.417Z,90.00
2023-12-29T01:36:24.626Z,89.00
2023-12-29T01:36:57.612Z,89.00
2023-12-29T01:37:29.722Z,88.67
2023-12-29T01:38:03.682Z,88.00
2023-12-29T01:38:35.768Z,87.33
2023-12-29T01:39:07.776Z,86.67
2023-12-29T01:39:39.901Z,86.00
2023-12-29T01:40:12.876Z,85.67
2023-12-29T01:40:47.343Z,85.00
2023-12-29T01:41:21.060Z,85.00
2023-12-29T01:41:53.083Z,84.67
2023-12-29T01:42:25.112Z,84.00
2023-12-29T01:42:57.199Z,84.00
2023-12-29T01:43:29.398Z,84.00
2023-12-29T01:44:19.705Z,83.67
2023-12-29T01:44:51.891Z,83.00
2023-12-29T01:45:26.132Z,83.00
2023-12-29T01:45:58.704Z,83.00
2023-12-29T01:46:34.567Z,83.00
2023-12-29T01:47:14.585Z,83.00
2023-12-29T01:47:48.193Z,83.00
2023-12-29T01:48:20.961Z,83.33
2023-12-29T01:48:53.961Z,84.00
2023-12-29T01:49:26.768Z,84.00
2023-12-29T01:49:59.703Z,84.00
2023-12-29T01:50:32.768Z,84.00
2023-12-29T01:51:05.371Z,84.00
2023-12-29T01:51:37.560Z,85.00
2023-12-29T01:52:09.808Z,85.00
2023-12-29T01:52:45.480Z,85.00
2023-12-29T01:53:17.650Z,85.00
2023-12-29T01:53:51.251Z,85.00
2023-12-29T01:54:25.544Z,85.00
2023-12-29T01:54:57.839Z,85.00
2023-12-29T01:55:31.330Z,85.00
2023-12-29T01:56:03.960Z,85.00
2023-12-29T01:56:36.190Z,85.33
2023-12-29T01:57:09.223Z,86.00
2023-12-29T01:57:41.415Z,86.00
2023-12-29T01:58:14.006Z,86.00
2023-12-29T01:58:47.019Z,86.00
2023-12-29T01:59:25.516Z,86.00
2023-12-29T01:59:58.720Z,86.00
2023-12-29T02:00:33.216Z,86.00
2023-12-29T02:01:08.044Z,87.00
2023-12-29T02:01:40.500Z,87.00
2023-12-29T02:02:13.975Z,86.67
2023-12-29T02:02:48.408Z,86.67
2023-12-29T02:03:20.686Z,87.00
2023-12-29T02:03:53.402Z,87.00
2023-12-29T02:04:26.441Z,87.00
2023-12-29T02:04:59.117Z,87.00
2023-12-29T02:05:35.673Z,87.00
2023-12-29T02:06:10.257Z,87.00
2023-12-29T02:06:42.324Z,87.00
2023-12-29T02:07:14.446Z,87.00
2023-12-29T02:07:47.899Z,87.00
2023-12-29T02:08:19.971Z,87.00
2023-12-29T02:08:52.416Z,87.00
2023-12-29T02:09:24.648Z,87.00
2023-12-29T02:09:56.840Z,87.00
2023-12-29T02:10:29.023Z,87.00
2023-12-29T02:11:01.031Z,87.00
2023-12-29T02:11:33.634Z,87.00
2023-12-29T02:12:06.524Z,87.33
2023-12-29T02:12:38.912Z,88.00
2023-12-29T02:13:10.970Z,88.00
2023-12-29T02:13:42.938Z,88.00
2023-12-29T02:14:17.131Z,88.00
2023-12-29T02:14:49.312Z,88.00
2023-12-29T02:15:21.411Z,88.00
2023-12-29T02:16:00.468Z,89.33
2023-12-29T02:16:39.961Z,90.67
2023-12-29T02:17:22.053Z,91.33
2023-12-29T02:18:02.213Z,91.67
2023-12-29T02:18:37.425Z,92.00
2023-12-29T02:19:25.486Z,92.00
2023-12-29T02:19:58.433Z,92.00
2023-12-29T02:20:30.864Z,92.00
2023-12-29T02:21:03.884Z,92.00
2023-12-29T02:21:35.910Z,91.00
2023-12-29T02:22:09.492Z,91.00
2023-12-29T02:22:41.648Z,91.00
2023-12-29T02:23:13.730Z,91.00
2023-12-29T02:23:46.126Z,91.33
2023-12-29T02:24:18.206Z,92.33
2023-12-29T02:24:52.303Z,94.00
2023-12-29T02:25:24.580Z,96.00
2023-12-29T02:26:04.021Z,97.67
2023-12-29T02:26:38.054Z,98.00
2023-12-29T02:27:24.370Z,98.00
2023-12-29T02:28:01.173Z,98.00
2023-12-29T02:28:38.079Z,97.67
2023-12-29T02:29:15.752Z,97.00
2023-12-29T02:30:01.829Z,96.67
2023-12-29T02:30:40.139Z,96.00
2023-12-29T02:31:19.170Z,96.00
2023-12-29T02:31:57.947Z,96.00
2023-12-29T02:32:31.574Z,95.67
2023-12-29T02:33:09.189Z,95.00
2023-12-29T02:33:44.207Z,94.33
2023-12-29T02:34:20.791Z,94.00
2023-12-29T02:34:54.410Z,94.00
2023-12-29T02:35:29.582Z,93.67
2023-12-29T02:36:04.572Z,93.00
2023-12-29T02:36:37.583Z,92.33
2023-12-29T02:37:13.461Z,92.00
2023-12-29T02:37:45.978Z,92.00
2023-12-29T02:38:18.518Z,92.00
2023-12-29T02:38:51.123Z,92.00
2023-12-29T02:39:23.637Z,92.00
2023-12-29T02:39:58.509Z,92.00
2023-12-29T02:40:31.184Z,92.00
2023-12-29T02:41:03.587Z,92.00
2023-12-29T02:41:35.649Z,92.00
2023-12-29T02:42:07.940Z,92.00
2023-12-29T02:42:45.375Z,92.00
2023-12-29T02:43:17.641Z,92.00
2023-12-29T02:43:49.770Z,91.00
2023-12-29T02:44:22.638Z,91.00
2023-12-29T02:44:55.215Z,91.00
2023-12-29T02:45:28.019Z,91.00
2023-12-29T02:46:00.037Z,91.00
2023-12-29T02:46:32.378Z,90.00
2023-12-29T02:47:04.982Z,90.00
2023-12-29T02:47:37.090Z,90.00
2023-12-29T02:48:09.333Z,91.33
2023-12-29T02:48:41.738Z,94.33
2023-12-29T02:49:14.214Z,100.00
2023-12-29T02:49:47.299Z,103.00
2023-12-29T02:50:19.758Z,102.00
2023-12-29T02:50:51.842Z,102.00
2023-12-29T02:51:23.868Z,102.00
2023-12-29T02:51:55.941Z,102.00
2023-12-29T02:52:27.931Z,102.33
2023-12-29T02:53:00.190Z,103.00
2023-12-29T02:53:32.243Z,103.33
2023-12-29T02:54:04.598Z,103.33
2023-12-29T02:54:37.097Z,103.00
2023-12-29T02:55:10.855Z,103.00
2023-12-29T02:55:43.324Z,103.00
2023-12-29T02:56:15.537Z,103.00
2023-12-29T02:56:47.547Z,103.00
2023-12-29T02:57:19.557Z,103.00
2023-12-29T02:57:51.698Z,103.00
2023-12-29T02:58:24.019Z,102.33
2023-12-29T02:58:56.224Z,102.00
2023-12-29T02:59:28.225Z,102.00
2023-12-29T03:00:00.613Z,101.67
2023-12-29T03:00:33.037Z,101.00
2023-12-29T03:01:05.407Z,100.67
2023-12-29T03:01:37.704Z,100.00
2023-12-29T03:02:09.929Z,100.00
2023-12-29T03:02:42.250Z,99.00
2023-12-29T03:03:15.169Z,98.33
2023-12-29T03:03:47.292Z,98.00
2023-12-29T03:04:19.375Z,97.33
2023-12-29T03:04:52.050Z,97.00
2023-12-29T03:05:24.310Z,97.00
2023-12-29T03:05:56.337Z,96.33
2023-12-29T03:06:28.395Z,95.00
2023-12-29T03:07:00.471Z,95.00
2023-12-29T03:07:32.449Z,93.67
2023-12-29T03:08:05.274Z,93.00
2023-12-29T03:08:37.458Z,92.00
2023-12-29T03:09:09.539Z,92.00
2023-12-29T03:09:41.560Z,92.00
2023-12-29T03:10:15.286Z,92.00
2023-12-29T03:10:47.434Z,92.00
2023-12-29T03:11:19.818Z,91.00
2023-12-29T03:11:51.823Z,91.00
2023-12-29T03:12:23.889Z,91.00
2023-12-29T03:12:55.966Z,91.00
2023-12-29T03:13:28.226Z,91.00
2023-12-29T03:14:00.326Z,91.00
2023-12-29T03:14:32.359Z,91.00
2023-12-29T03:15:04.953Z,91.00
2023-12-29T03:15:37.123Z,91.00
2023-12-29T03:16:09.484Z,91.00
2023-12-29T03:16:41.604Z,91.00
2023-12-29T03:17:13.819Z,91.67
2023-12-29T03:17:45.943Z,92.00
2023-12-29T03:18:18.211Z,92.00
2023-12-29T03:18:50.565Z,92.00
2023-12-29T03:19:22.728Z,92.00
2023-12-29T03:19:54.923Z,92.00
2023-12-29T03:20:27.032Z,92.00
2023-12-29T03:20:59.076Z,92.00
2023-12-29T03:21:31.339Z,92.00
2023-12-29T03:22:04.191Z,92.00
2023-12-29T03:22:36.285Z,92.00
2023-12-29T03:23:08.335Z,92.00
2023-12-29T03:23:40.473Z,92.00
2023-12-29T03:24:13.212Z,92.00
2023-12-29T03:24:45.530Z,92.00
2023-12-29T03:25:19.258Z,92.00
2023-12-29T03:25:51.341Z,92.00
2023-12-29T03:26:23.438Z,92.00
2023-12-29T03:26:55.667Z,92.00
2023-12-29T03:27:27.688Z,92.00
2023-12-29T03:28:00.077Z,93.00
2023-12-29T03:28:32.456Z,93.00
2023-12-29T03:29:04.651Z,93.00
2023-12-29T03:29:37.240Z,94.00
2023-12-29T03:30:10.401Z,94.33
2023-12-29T03:30:42.716Z,95.00
2023-12-29T03:31:14.844Z,96.00
2023-12-29T03:31:47.089Z,97.00
2023-12-29T03:32:19.945Z,98.00
2023-12-29T03:32:52.106Z,98.00
2023-12-29T03:33:24.206Z,98.00
2023-12-29T03:33:56.433Z,98.33
2023-12-29T03:34:28.675Z,99.00
2023-12-29T03:35:01.032Z,99.00
2023-12-29T03:35:33.462Z,99.00
2023-12-29T03:36:05.899Z,99.00
2023-12-29T03:36:37.986Z,99.00
2023-12-29T03:37:10.154Z,99.00
2023-12-29T03:37:42.831Z,99.00
2023-12-29T03:38:16.203Z,99.00
2023-12-29T03:38:48.324Z,99.00
2023-12-29T03:39:20.455Z,99.00
2023-12-29T03:39:52.501Z,98.00
2023-12-29T03:40:25.892Z,98.00
2023-12-29T03:40:57.876Z,98.00
2023-12-29T03:41:30.034Z,97.33
2023-12-29T03:42:02.113Z,97.00
2023-12-29T03:42:34.140Z,97.00
2023-12-29T03:43:07.192Z,97.00
2023-12-29T03:43:40.262Z,97.00
2023-12-29T03:44:12.386Z,97.00
2023-12-29T03:44:44.457Z,97.00
2023-12-29T03:45:17.137Z,97.00
2023-12-29T03:45:49.313Z,98.00
2023-12-29T03:46:22.341Z,98.00
2023-12-29T03:46:54.470Z,98.00
2023-12-29T03:47:26.612Z,98.00
2023-12-29T03:47:59.030Z,98.00
2023-12-29T03:48:31.629Z,98.67
2023-12-29T03:49:03.893Z,99.00
2023-12-29T03:49:36.139Z,99.00
2023-12-29T03:50:09.094Z,99.00
2023-12-29T03:50:41.257Z,99.00
2023-12-29T03:51:13.753Z,99.00
2023-12-29T03:51:45.899Z,100.00
2023-12-29T03:52:18.018Z,100.00
2023-12-29T03:52:50.030Z,100.00
2023-12-29T03:53:22.108Z,100.00
2023-12-29T03:53:54.201Z,100.00
2023-12-29T03:54:26.380Z,100.00
2023-12-29T03:54:58.589Z,100.00
2023-12-29T03:55:32.001Z,100.00
2023-12-29T03:56:05.969Z,100.00
2023-12-29T03:56:38.252Z,100.00
2023-12-29T03:57:11.526Z,99.67
2023-12-29T03:57:44.830Z,99.00
2023-12-29T03:58:17.106Z,99.00
2023-12-29T03:58:49.223Z,99.00
2023-12-29T03:59:21.222Z,99.00
2023-12-29T03:59:53.214Z,99.00
2023-12-29T04:00:25.623Z,99.00
2023-12-29T04:00:57.784Z,99.00
2023-12-29T04:01:30.099Z,99.00
2023-12-29T04:02:02.313Z,99.00
2023-12-29T04:02:34.297Z,99.00
2023-12-29T04:03:06.292Z,99.00
2023-12-29T04:03:38.761Z,99.00
2023-12-29T04:04:10.959Z,99.00
2023-12-29T04:04:43.002Z,99.00
2023-12-29T04:05:15.239Z,99.00
2023-12-29T04:05:47.432Z,99.00
2023-12-29T04:06:19.475Z,99.00
2023-12-29T04:06:51.571Z,99.00
2023-12-29T04:07:23.607Z,99.00
2023-12-29T04:07:55.579Z,99.00
2023-12-29T04:08:27.598Z,99.00
2023-12-29T04:08:59.568Z,99.00
2023-12-29T04:09:31.887Z,99.67
2023-12-29T04:10:04.381Z,100.33
2023-12-29T04:10:37.737Z,101.00
2023-12-29T04:11:09.788Z,101.67
2023-12-29T04:11:41.830Z,102.00
2023-12-29T04:12:13.808Z,102.00
2023-12-29T04:12:45.844Z,102.00
2023-12-29T04:13:18.634Z,103.00
2023-12-29T04:13:50.690Z,104.00
2023-12-29T04:14:22.717Z,104.67
2023-12-29T04:14:54.684Z,105.67
2023-12-29T04:15:26.781Z,106.00
2023-12-29T04:15:58.897Z,106.00
2023-12-29T04:16:30.903Z,106.00
2023-12-29T04:17:03.122Z,106.33
2023-12-29T04:17:35.144Z,107.00
2023-12-29T04:18:07.340Z,107.00
2023-12-29T04:18:39.441Z,107.33
2023-12-29T04:19:13.355Z,108.67
2023-12-29T04:19:46.227Z,109.67
2023-12-29T04:20:18.323Z,110.00
2023-12-29T04:20:50.817Z,111.00
2023-12-29T04:21:22.942Z,111.67
2023-12-29T04:21:55.002Z,112.00
2023-12-29T04:22:27.030Z,112.00
2023-12-29T04:22:59.015Z,112.33
2023-12-29T04:23:30.995Z,113.00
2023-12-29T04:24:02.990Z,113.67
2023-12-29T04:24:35.020Z,115.00
2023-12-29T04:25:07.847Z,116.00
2023-12-29T04:25:41.442Z,116.67
2023-12-29T04:26:13.594Z,118.33
2023-12-29T04:26:45.651Z,121.00
2023-12-29T04:27:19.073Z,123.00
2023-12-29T04:27:51.109Z,123.00
2023-12-29T04:28:23.195Z,123.00
2023-12-29T04:28:55.198Z,123.00
2023-12-29T04:29:27.207Z,122.00
2023-12-29T04:29:59.224Z,121.67
2023-12-29T04:30:31.374Z,121.00
2023-12-29T04:31:03.683Z,121.00
2023-12-29T04:31:36.182Z,120.33
2023-12-29T04:32:08.199Z,120.00
2023-12-29T04:32:40.309Z,118.67
2023-12-29T04:33:12.341Z,117.67
2023-12-29T04:33:44.371Z,116.33
2023-12-29T04:34:16.547Z,115.00
2023-12-29T04:34:48.757Z,112.67
2023-12-29T04:35:20.781Z,110.67
2023-12-29T04:35:52.830Z,109.33
2023-12-29T04:36:24.856Z,107.33
2023-12-29T04:36:56.916Z,105.67
2023-12-29T04:37:28.924Z,104.33
2023-12-29T04:38:01.200Z,102.67
2023-12-29T04:38:33.656Z,101.33
2023-12-29T04:39:05.789Z,100.33
2023-12-29T04:39:37.817Z,99.00
2023-12-29T04:40:10.663Z,99.00
2023-12-29T04:40:44.269Z,99.00
2023-12-29T04:41:16.292Z,99.00
2023-12-29T04:41:48.343Z,99.00
2023-12-29T04:42:20.318Z,99.00
2023-12-29T04:42:52.425Z,99.33
2023-12-29T04:43:24.424Z,100.00
2023-12-29T04:43:56.484Z,100.00
2023-12-29T04:44:28.494Z,99.00
2023-12-29T04:45:00.578Z,99.00
2023-12-29T04:45:32.657Z,99.00
2023-12-29T04:46:04.956Z,99.00
2023-12-29T04:46:37.066Z,99.67
2023-12-29T04:47:09.152Z,100.00
2023-12-29T04:47:41.252Z,100.00
2023-12-29T04:48:13.450Z,100.00
2023-12-29T04:48:45.635Z,101.00
2023-12-29T04:49:17.886Z,101.00
2023-12-29T04:49:50.124Z,101.00
2023-12-29T04:50:22.307Z,101.00
2023-12-29T04:50:54.364Z,102.00
2023-12-29T04:51:26.378Z,102.00
2023-12-29T04:51:58.475Z,102.00
2023-12-29T04:52:30.562Z,103.00
2023-12-29T04:53:02.596Z,103.33
2023-12-29T04:53:34.605Z,104.00
2023-12-29T04:54:06.700Z,105.00
2023-12-29T04:54:38.992Z,106.00
2023-12-29T04:55:11.041Z,106.67
2023-12-29T04:55:44.902Z,111.00
2023-12-29T04:56:16.915Z,129.67
2023-12-29T04:56:48.970Z,146.00
2023-12-29T04:57:21.286Z,143.33
2023-12-29T04:57:53.277Z,137.33
2023-12-29T04:58:25.442Z,137.67
2023-12-29T04:58:57.476Z,138.33
2023-12-29T04:59:29.576Z,136.67
2023-12-29T05:00:01.576Z,135.67
2023-12-29T05:00:33.750Z,134.33
2023-12-29T05:01:05.937Z,132.67
2023-12-29T05:01:38.069Z,131.33
2023-12-29T05:02:10.314Z,130.67
2023-12-29T05:02:42.304Z,129.67
2023-12-29T05:03:14.381Z,128.67
2023-12-29T05:03:46.455Z,127.33
2023-12-29T05:04:18.607Z,125.00
2023-12-29T05:04:50.817Z,121.33
2023-12-29T05:05:22.893Z,117.00
2023-12-29T05:05:54.949Z,113.67
2023-12-29T05:06:26.989Z,112.00
2023-12-29T05:06:58.967Z,111.67
2023-12-29T05:07:30.994Z,111.33
2023-12-29T05:08:03.496Z,111.33
2023-12-29T05:08:35.694Z,112.00
2023-12-29T05:09:07.739Z,111.00
2023-12-29T05:09:43.490Z,111.00
2023-12-29T05:10:15.857Z,112.00
2023-12-29T05:10:49.276Z,112.00
2023-12-29T05:11:21.347Z,112.33
2023-12-29T05:11:53.524Z,113.00
2023-12-29T05:12:25.604Z,114.00
2023-12-29T05:12:58.179Z,114.67
2023-12-29T05:13:30.158Z,116.67
2023-12-29T05:14:02.160Z,118.33
2023-12-29T05:14:34.275Z,120.67
2023-12-29T05:15:07.738Z,123.00
2023-12-29T05:15:39.748Z,126.00
2023-12-29T05:16:11.902Z,131.67
2023-12-29T05:16:44.179Z,139.00
2023-12-29T05:17:16.278Z,142.33
2023-12-29T05:17:48.443Z,145.00
2023-12-29T05:18:20.609Z,147.33
2023-12-29T05:18:52.758Z,149.67
2023-12-29T05:19:25.071Z,149.33
2023-12-29T05:19:57.225Z,147.33
2023-12-29T05:20:29.370Z,146.67
2023-12-29T05:21:01.384Z,144.67
2023-12-29T05:21:33.418Z,142.67
2023-12-29T05:22:05.668Z,142.00
2023-12-29T05:22:37.941Z,141.00
2023-12-29T05:23:10.144Z,140.00
2023-12-29T05:23:42.241Z,138.00
2023-12-29T05:24:14.364Z,135.67
2023-12-29T05:24:46.520Z,133.67
2023-12-29T05:25:18.688Z,131.00
2023-12-29T05:25:52.359Z,128.67
2023-12-29T05:26:24.366Z,122.67
2023-12-29T05:26:56.429Z,114.67
2023-12-29T05:27:28.964Z,107.33
2023-12-29T05:28:01.277Z,104.33
2023-12-29T05:28:33.561Z,103.33
2023-12-29T05:29:05.577Z,100.67
2023-12-29T05:29:37.613Z,99.67
2023-12-29T05:30:10.730Z,100.00
2023-12-29T05:30:43.074Z,99.67
2023-12-29T05:31:15.252Z,98.33
2023-12-29T05:31:47.564Z,99.33
2023-12-29T05:32:19.667Z,99.00
2023-12-29T05:32:51.686Z,99.00
2023-12-29T05:33:23.836Z,99.00
2023-12-29T05:33:57.916Z,100.00
2023-12-29T05:34:30.202Z,101.67
2023-12-29T05:35:02.357Z,102.67
2023-12-29T05:35:34.385Z,103.00
2023-12-29T05:36:11.647Z,103.00
2023-12-29T05:36:43.729Z,103.00
2023-12-29T05:37:15.830Z,102.00
2023-12-29T05:37:47.895Z,101.33
2023-12-29T05:38:20.346Z,101.00
2023-12-29T05:38:52.484Z,101.00
2023-12-29T05:39:24.524Z,100.00
2023-12-29T05:39:56.582Z,100.00
2023-12-29T05:40:28.674Z,100.33
2023-12-29T05:41:02.289Z,101.00
2023-12-29T05:41:34.415Z,101.00
2023-12-29T05:42:06.692Z,101.00
2023-12-29T05:42:38.788Z,101.00
2023-12-29T05:43:10.879Z,101.33
2023-12-29T05:43:43.491Z,101.67
2023-12-29T05:44:15.514Z,101.67
2023-12-29T05:44:47.691Z,101.33
2023-12-29T05:45:19.908Z,101.00
2023-12-29T05:45:52.002Z,101.00
2023-12-29T05:46:24.057Z,101.00
2023-12-29T05:46:56.115Z,101.67
2023-12-29T05:47:28.202Z,102.00
2023-12-29T05:48:00.346Z,102.00
2023-12-29T05:48:32.822Z,102.00
2023-12-29T05:49:05.063Z,102.00
2023-12-29T05:49:37.148Z,102.00
2023-12-29T05:50:10.064Z,102.67
2023-12-29T05:50:42.161Z,103.00
2023-12-29T05:51:15.084Z,103.00
2023-12-29T05:51:47.163Z,104.00
2023-12-29T05:52:19.310Z,104.67
2023-12-29T05:52:51.356Z,105.00
2023-12-29T05:53:23.355Z,105.00
2023-12-29T05:53:55.467Z,105.67
2023-12-29T05:54:27.645Z,106.00
2023-12-29T05:54:59.778Z,106.00
2023-12-29T05:55:31.877Z,106.00
2023-12-29T05:56:05.851Z,106.00
2023-12-29T05:56:37.867Z,106.00
2023-12-29T05:57:09.948Z,106.00
2023-12-29T05:57:42.178Z,106.00
2023-12-29T05:58:14.292Z,106.00
2023-12-29T05:58:46.363Z,106.00
2023-12-29T05:59:18.447Z,106.00
2023-12-29T05:59:50.478Z,106.67
2023-12-29T06:00:22.508Z,107.00
2023-12-29T06:00:56.291Z,107.00
2023-12-29T06:01:28.579Z,107.00
2023-12-29T06:02:00.647Z,107.00
2023-12-29T06:02:32.817Z,107.00
2023-12-29T06:03:05.184Z,107.67
2023-12-29T06:03:37.471Z,108.00
2023-12-29T06:04:09.699Z,108.67
2023-12-29T06:04:41.813Z,111.00
2023-12-29T06:05:13.987Z,115.00
2023-12-29T06:05:47.367Z,120.00
2023-12-29T06:06:19.693Z,124.67
2023-12-29T06:06:51.859Z,128.33
2023-12-29T06:07:23.945Z,132.00
2023-12-29T06:07:56.087Z,135.00
2023-12-29T06:08:28.170Z,136.00
2023-12-29T06:09:00.166Z,137.33
2023-12-29T06:09:32.231Z,138.67
2023-12-29T06:10:05.136Z,142.00
2023-12-29T06:10:37.269Z,139.67
2023-12-29T06:11:15.912Z,137.67
2023-12-29T06:11:47.998Z,137.00
2023-12-29T06:12:20.072Z,136.67
2023-12-29T06:12:52.120Z,136.33
2023-12-29T06:13:24.204Z,138.00
2023-12-29T06:13:56.836Z,138.00
2023-12-29T06:14:28.888Z,138.00
2023-12-29T06:15:00.895Z,138.67
2023-12-29T06:15:33.057Z,140.00
2023-12-29T06:16:06.110Z,140.00
2023-12-29T06:16:38.138Z,139.00
2023-12-29T06:17:10.171Z,138.33
2023-12-29T06:17:42.557Z,138.00
2023-12-29T06:18:14.648Z,137.33
2023-12-29T06:18:46.928Z,137.00
2023-12-29T06:19:19.209Z,136.33
2023-12-29T06:19:51.324Z,135.67
2023-12-29T06:20:23.403Z,135.00
2023-12-29T06:20:55.486Z,135.00
2023-12-29T06:21:27.561Z,134.67
2023-12-29T06:21:59.601Z,134.00
2023-12-29T06:22:31.597Z,133.67
2023-12-29T06:23:03.895Z,133.00
2023-12-29T06:23:35.910Z,132.33
2023-12-29T06:24:08.086Z,131.67
2023-12-29T06:24:40.174Z,130.67
2023-12-29T06:25:13.434Z,130.00
2023-12-29T06:25:45.734Z,129.00
2023-12-29T06:26:20.402Z,129.00
2023-12-29T06:26:52.411Z,129.00
2023-12-29T06:27:24.529Z,130.00
2023-12-29T06:27:56.661Z,130.33
2023-12-29T06:28:28.819Z,131.00
2023-12-29T06:29:00.927Z,131.00
2023-12-29T06:29:32.991Z,131.33
2023-12-29T06:30:06.240Z,132.00
2023-12-29T06:30:38.452Z,132.67
2023-12-29T06:31:10.794Z,133.67
2023-12-29T06:31:44.126Z,135.33
2023-12-29T06:32:16.354Z,136.33
2023-12-29T06:32:49.377Z,137.33
2023-12-29T06:33:21.571Z,138.33
2023-12-29T06:33:53.738Z,140.67
2023-12-29T06:34:25.962Z,141.33
2023-12-29T06:34:58.095Z,143.00
2023-12-29T06:35:30.752Z,146.00
2023-12-29T06:36:04.163Z,148.33
2023-12-29T06:36:36.250Z,150.33
2023-12-29T06:37:08.345Z,152.00
2023-12-29T06:37:40.368Z,152.00
2023-12-29T06:38:12.370Z,150.67
2023-12-29T06:38:44.422Z,150.00
2023-12-29T06:39:16.458Z,149.33
2023-12-29T06:39:48.585Z,149.00
2023-12-29T06:40:20.864Z,148.00
2023-12-29T06:40:52.934Z,147.67
2023-12-29T06:41:26.335Z,146.67
2023-12-29T06:41:58.399Z,146.00
2023-12-29T06:42:30.454Z,145.00
2023-12-29T06:43:02.584Z,145.00
2023-12-29T06:43:34.908Z,144.67
2023-12-29T06:44:07.129Z,144.00
2023-12-29T06:44:39.196Z,143.33
2023-12-29T06:45:11.449Z,143.00
2023-12-29T06:45:43.539Z,142.67
2023-12-29T06:46:15.890Z,142.00
2023-12-29T06:46:48.077Z,141.00
2023-12-29T06:47:20.204Z,140.33
2023-12-29T06:47:52.302Z,139.33
2023-12-29T06:48:24.527Z,139.00
2023-12-29T06:48:56.846Z,139.00
2023-12-29T06:49:29.127Z,138.00
2023-12-29T06:50:01.316Z,138.00
2023-12-29T06:50:33.517Z,138.00
2023-12-29T06:51:05.716Z,138.00
2023-12-29T06:51:37.775Z,137.33
2023-12-29T06:52:09.921Z,137.00
2023-12-29T06:52:41.956Z,137.00
2023-12-29T06:53:14.293Z,137.33
2023-12-29T06:53:47.208Z,137.33
2023-12-29T06:54:19.243Z,137.00